createdAt,value
2022-08-28T00:02:21.060Z,86.82
2022-08-28T00:04:50.230Z,86.46
2022-08-28T00:07:19.351Z,86.68
2022-08-28T00:09:49.186Z,86.31
2022-08-28T00:12:17.945Z,86.78
2022-08-28T00:14:46.496Z,87.02
2022-08-28T00:17:14.990Z,87.27
2022-08-28T00:19:43.597Z,86.72
2022-08-28T00:22:12.182Z,86.33
2022-08-28T00:24:42.816Z,86.44
2022-08-28T00:27:30.449Z,86.16
2022-08-28T00:29:59.209Z,85.61
2022-08-28T00:32:28.361Z,86.09
2022-08-28T00:34:56.847Z,86.20
2022-08-28T00:37:25.321Z,85.10
2022-08-28T00:39:54.767Z,85.16
2022-08-28T00:42:24.716Z,85.23
2022-08-28T00:44:53.182Z,85.08
2022-08-28T00:47:26.458Z,84.62
2022-08-28T00:49:57.289Z,85.05
2022-08-28T00:52:26.917Z,85.87
2022-08-28T00:54:59.940Z,85.22
2022-08-28T00:57:33.317Z,84.97
2022-08-28T01:00:02.200Z,85.00
2022-08-28T01:02:31.844Z,85.24
2022-08-28T01:05:00.403Z,85.56
2022-08-28T01:07:29.141Z,85.82
2022-08-28T01:09:59.313Z,85.70
2022-08-28T01:12:33.725Z,84.92
2022-08-28T01:15:04.762Z,85.30
2022-08-28T01:17:35.965Z,85.68
2022-08-28T01:20:10.284Z,85.09
2022-08-28T01:22:42.101Z,85.63
2022-08-28T01:25:15.204Z,85.20
2022-08-28T01:27:43.984Z,84.69
2022-08-28T01:30:15.689Z,84.74
2022-08-28T01:32:49.474Z,85.15
2022-08-28T01:35:21.106Z,85.54
2022-08-28T01:37:49.698Z,85.12
2022-08-28T01:40:24.870Z,85.85
2022-08-28T01:42:55.098Z,85.60
2022-08-28T01:45:26.217Z,86.06
2022-08-28T01:47:57.375Z,85.56
2022-08-28T01:50:25.863Z,84.87
2022-08-28T01:52:54.320Z,85.97
2022-08-28T01:55:24.271Z,86.23
2022-08-28T01:57:56.160Z,86.36
2022-08-28T02:00:27.554Z,86.67
2022-08-28T02:02:58.253Z,86.51
2022-08-28T02:05:29.813Z,87.00
2022-08-28T02:07:58.811Z,87.00
2022-08-28T02:10:30.444Z,87.87
2022-08-28T02:12:59.841Z,87.98
2022-08-28T02:15:30.596Z,87.81
2022-08-28T02:17:59.853Z,88.07
2022-08-28T02:20:30.506Z,88.80
2022-08-28T02:22:59.446Z,88.84
2022-08-28T02:25:30.824Z,89.94
2022-08-28T02:27:59.590Z,89.98
2022-08-28T02:30:28.633Z,89.86
2022-08-28T02:32:57.869Z,89.01
2022-08-28T02:35:26.435Z,89.43
2022-08-28T02:37:55.592Z,90.35
2022-08-28T02:40:25.600Z,90.43
2022-08-28T02:42:55.591Z,90.72
2022-08-28T02:45:24.113Z,91.09
2022-08-28T02:47:53.933Z,91.05
2022-08-28T02:50:22.756Z,91.46
2022-08-28T02:52:51.634Z,91.42
2022-08-28T02:55:21.243Z,90.93
2022-08-28T02:57:50.299Z,91.52
2022-08-28T03:00:23.508Z,90.63
2022-08-28T03:02:53.356Z,91.02
2022-08-28T03:05:25.014Z,91.76
2022-08-28T03:07:54.412Z,91.46
2022-08-28T03:10:23.045Z,91.01
2022-08-28T03:12:51.709Z,91.51
2022-08-28T03:15:22.233Z,90.58
2022-08-28T03:17:51.235Z,91.13
2022-08-28T03:20:20.069Z,90.63
2022-08-28T03:23:06.491Z,91.12
2022-08-28T03:25:35.025Z,91.44
2022-08-28T03:28:03.911Z,91.46
2022-08-28T03:30:33.937Z,90.36
2022-08-28T03:33:02.997Z,90.46
2022-08-28T03:35:31.755Z,90.72
2022-08-28T03:38:00.393Z,90.58
2022-08-28T03:40:29.075Z,90.54
2022-08-28T03:42:57.637Z,90.22
2022-08-28T03:45:27.946Z,90.95
2022-08-28T03:47:57.893Z,91.07
2022-08-28T03:50:26.409Z,91.79
2022-08-28T03:52:57.471Z,92.42
2022-08-28T03:55:26.759Z,91.82
2022-08-28T03:57:55.353Z,92.05
2022-08-28T04:00:24.057Z,92.77
2022-08-28T04:02:53.514Z,92.61
2022-08-28T04:05:23.442Z,92.58
2022-08-28T04:07:53.850Z,92.66
2022-08-28T04:10:22.412Z,92.53
2022-08-28T04:12:50.984Z,93.09
2022-08-28T04:15:20.277Z,92.70
2022-08-28T04:17:49.497Z,92.07
2022-08-28T04:20:18.015Z,91.37
2022-08-28T04:22:48.015Z,91.89
2022-08-28T04:25:16.570Z,91.49
2022-08-28T04:27:45.112Z,91.81
2022-08-28T04:30:14.480Z,91.12
2022-08-28T04:32:43.629Z,90.88
2022-08-28T04:35:14.628Z,90.99
2022-08-28T04:37:44.194Z,91.23
2022-08-28T04:40:15.847Z,91.41
2022-08-28T04:42:45.262Z,91.34
2022-08-28T04:45:13.826Z,91.89
2022-08-28T04:47:43.318Z,91.44
2022-08-28T04:50:12.494Z,91.43
2022-08-28T04:52:43.119Z,91.06
2022-08-28T04:55:11.727Z,91.20
2022-08-28T04:57:41.645Z,91.67
2022-08-28T05:00:12.350Z,91.74
2022-08-28T05:02:42.964Z,91.73
2022-08-28T05:05:11.817Z,91.51
2022-08-28T05:07:40.361Z,91.55
2022-08-28T05:10:13.541Z,91.98
2022-08-28T05:12:43.905Z,92.07
2022-08-28T05:15:13.007Z,91.77
2022-08-28T05:17:41.665Z,92.19
2022-08-28T05:20:10.991Z,91.73
2022-08-28T05:22:39.487Z,91.63
2022-08-28T05:25:08.766Z,91.92
2022-08-28T05:27:38.259Z,91.96
2022-08-28T05:30:10.609Z,91.86
2022-08-28T05:32:39.493Z,91.84
2022-08-28T05:35:08.678Z,92.24
2022-08-28T05:37:37.497Z,91.83
2022-08-28T05:40:06.950Z,91.58
2022-08-28T05:42:38.870Z,91.67
2022-08-28T05:45:10.383Z,91.26
2022-08-28T05:47:38.916Z,91.05
2022-08-28T05:50:08.919Z,90.89
2022-08-28T05:52:37.575Z,89.86
2022-08-28T05:55:08.424Z,89.59
2022-08-28T05:57:37.186Z,89.76
2022-08-28T06:00:09.792Z,89.50
2022-08-28T06:02:39.788Z,89.06
2022-08-28T06:05:09.118Z,88.98
2022-08-28T06:07:42.005Z,89.42
2022-08-28T06:10:10.958Z,88.96
2022-08-28T06:12:39.465Z,88.65
2022-08-28T06:15:09.925Z,88.30
2022-08-28T06:17:40.272Z,88.14
2022-08-28T06:20:10.717Z,88.34
2022-08-28T06:22:39.237Z,87.10
2022-08-28T06:25:09.303Z,85.21
2022-08-28T06:27:39.249Z,84.63
2022-08-28T06:30:09.142Z,84.36
2022-08-28T06:32:39.050Z,84.28
2022-08-28T06:35:08.027Z,84.02
2022-08-28T06:37:38.480Z,83.52
2022-08-28T06:40:08.110Z,83.05
2022-08-28T06:42:36.940Z,83.64
2022-08-28T06:45:06.276Z,82.73
2022-08-28T06:47:34.897Z,81.03
2022-08-28T06:50:05.399Z,80.12
2022-08-28T06:52:35.021Z,79.73
2022-08-28T06:55:07.032Z,76.33
2022-08-28T06:57:36.286Z,74.68
2022-08-28T07:00:06.803Z,73.55
2022-08-28T07:02:35.648Z,72.74
2022-08-28T07:05:06.731Z,72.07
2022-08-28T07:07:35.451Z,71.28
2022-08-28T07:10:04.418Z,71.55
2022-08-28T07:12:33.505Z,69.84
2022-08-28T07:15:03.738Z,70.03
2022-08-28T07:17:32.702Z,70.45
2022-08-28T07:20:01.232Z,70.67
2022-08-28T07:22:32.468Z,68.59
2022-08-28T07:25:01.197Z,67.11
2022-08-28T07:27:29.814Z,66.04
2022-08-28T07:29:58.422Z,65.70
2022-08-28T07:32:27.343Z,65.45
2022-08-28T07:34:57.092Z,64.46
2022-08-28T07:37:27.097Z,62.12
2022-08-28T07:39:57.074Z,62.63
2022-08-28T07:42:43.025Z,60.62
2022-08-28T07:45:12.354Z,60.53
2022-08-28T07:47:41.381Z,60.40
2022-08-28T07:50:10.330Z,61.77
2022-08-28T07:52:39.054Z,61.18
2022-08-28T07:55:10.043Z,61.24
2022-08-28T07:57:38.771Z,61.21
2022-08-28T08:00:08.552Z,58.60
2022-08-28T08:02:40.186Z,57.89
2022-08-28T08:05:10.780Z,59.24
2022-08-28T08:07:43.747Z,56.53
2022-08-28T08:10:19.938Z,54.88
2022-08-28T08:12:49.298Z,53.46
2022-08-28T08:15:21.407Z,52.91
2022-08-28T08:17:51.817Z,52.17
2022-08-28T08:20:20.681Z,53.29
2022-08-28T08:22:49.549Z,53.91
2022-08-28T08:25:19.477Z,53.56
2022-08-28T08:27:48.100Z,52.92
2022-08-28T08:30:16.796Z,50.63
2022-08-28T08:32:45.339Z,52.44
2022-08-28T08:35:13.895Z,53.48
2022-08-28T08:37:42.435Z,55.45
2022-08-28T08:40:15.692Z,56.24
2022-08-28T08:42:51.106Z,54.45
2022-08-28T08:45:26.438Z,50.68
2022-08-28T08:47:57.086Z,47.34
2022-08-28T08:50:29.369Z,47.82
2022-08-28T08:53:17.159Z,43.44
2022-08-28T08:55:50.028Z,43.47
2022-08-28T08:58:25.597Z,43.33
2022-08-28T09:01:04.679Z,40.45
2022-08-28T09:03:50.487Z,40.04
2022-08-28T09:06:28.023Z,39.30
2022-08-28T09:09:00.949Z,38.13
2022-08-28T09:11:42.142Z,39.95
2022-08-28T09:14:17.089Z,40.50
2022-08-28T09:16:49.356Z,42.45
2022-08-28T09:19:22.699Z,40.59
2022-08-28T09:21:52.412Z,40.95
2022-08-28T09:24:25.365Z,39.45
2022-08-28T09:26:57.349Z,41.57
2022-08-28T09:29:32.178Z,43.39
2022-08-28T09:32:18.869Z,44.58
2022-08-28T09:35:02.694Z,45.98
2022-08-28T09:37:32.656Z,46.76
2022-08-28T09:40:23.601Z,43.93
2022-08-28T09:43:24.420Z,40.89
2022-08-28T09:45:58.105Z,42.54
2022-08-28T09:48:34.013Z,42.43
2022-08-28T09:51:04.920Z,38.79
2022-08-28T09:53:35.909Z,39.05
2022-08-28T09:56:12.056Z,36.45
2022-08-28T09:58:44.781Z,36.71
2022-08-28T10:01:31.357Z,35.42
2022-08-28T10:30:04.261Z,30.51
2022-08-28T10:32:55.432Z,30.14
2022-08-28T10:35:26.864Z,31.13
2022-08-28T10:38:06.045Z,31.23
2022-08-28T10:40:37.927Z,29.99
2022-08-28T10:43:11.459Z,31.17
2022-08-28T10:45:42.424Z,32.02
2022-08-28T10:48:19.504Z,31.09
2022-08-28T10:50:51.967Z,30.28
2022-08-28T10:53:26.313Z,29.44
2022-08-28T10:55:58.367Z,27.92
2022-08-28T10:58:28.587Z,27.00
2022-08-28T11:01:04.497Z,26.04
2022-08-28T11:03:41.457Z,27.60
2022-08-28T11:06:16.900Z,27.30
2022-08-28T11:08:53.089Z,26.48
2022-08-28T11:11:42.214Z,26.36
2022-08-28T11:14:11.959Z,26.18
2022-08-28T11:16:47.288Z,28.57
2022-08-28T11:19:43.943Z,28.07
2022-08-28T11:22:18.791Z,26.29
2022-08-28T11:24:59.164Z,26.00
2022-08-28T11:27:33.747Z,25.95
2022-08-28T11:30:19.453Z,27.25
2022-08-28T11:33:02.013Z,27.30
2022-08-28T11:35:43.869Z,27.54
2022-08-28T11:38:16.422Z,27.71
2022-08-28T11:40:58.028Z,27.37
2022-08-28T11:43:36.565Z,27.90
2022-08-28T11:46:32.753Z,27.62
2022-08-28T11:49:05.150Z,27.20
2022-08-28T11:52:06.912Z,26.33
2022-08-28T11:54:52.198Z,27.25
2022-08-28T11:57:26.487Z,26.47
2022-08-28T12:00:03.031Z,26.43
2022-08-28T12:02:55.597Z,26.75
2022-08-28T12:05:57.386Z,26.88
2022-08-28T12:09:11.780Z,27.29
2022-08-28T12:12:04.061Z,26.68
2022-08-28T12:15:00.613Z,26.25
2022-08-28T12:17:50.780Z,26.67
2022-08-28T12:20:29.266Z,26.27
2022-08-28T12:23:01.421Z,25.77
2022-08-28T12:25:36.238Z,26.23
2022-08-28T12:28:16.716Z,26.93
2022-08-28T12:30:54.038Z,26.19
2022-08-28T12:33:31.905Z,26.52
2022-08-28T12:36:03.202Z,26.31
2022-08-28T12:38:35.450Z,27.21
2022-08-28T12:41:04.176Z,27.53
2022-08-28T12:43:41.688Z,26.51
2022-08-28T12:46:20.045Z,26.97
2022-08-28T12:48:51.631Z,26.60
2022-08-28T12:51:25.617Z,26.17
2022-08-28T12:53:57.709Z,27.14
2022-08-28T12:56:29.954Z,27.43
2022-08-28T12:59:35.712Z,26.95
2022-08-28T13:02:06.079Z,27.72
2022-08-28T13:04:38.376Z,26.97
2022-08-28T13:07:12.045Z,26.63
2022-08-28T13:09:47.865Z,27.65
2022-08-28T13:12:22.173Z,26.70
2022-08-28T13:15:02.206Z,26.96
2022-08-28T13:17:48.979Z,26.64
2022-08-28T13:20:28.813Z,27.00
2022-08-28T13:22:58.114Z,27.29
2022-08-28T13:25:29.851Z,27.34
2022-08-28T13:28:00.546Z,26.82
2022-08-28T13:30:33.650Z,27.12
2022-08-28T13:33:05.729Z,26.64
2022-08-28T13:35:41.179Z,27.37
2022-08-28T13:38:12.416Z,27.10
2022-08-28T13:41:01.835Z,26.45
2022-08-28T13:43:43.989Z,27.35
2022-08-28T13:46:14.229Z,27.16
2022-08-28T13:48:42.746Z,27.01
2022-08-28T13:51:21.182Z,26.45
2022-08-28T13:53:50.732Z,27.16
2022-08-28T13:56:21.947Z,29.08
2022-08-28T13:58:57.576Z,29.64
2022-08-28T14:01:48.138Z,31.31
2022-08-28T14:04:15.845Z,33.65
2022-08-28T14:06:44.926Z,33.77
2022-08-28T14:09:15.337Z,33.63
2022-08-28T14:11:47.818Z,34.24
2022-08-28T14:14:17.058Z,34.87
2022-08-28T14:16:47.328Z,34.57
2022-08-28T14:19:18.772Z,34.76
2022-08-28T14:21:47.332Z,35.12
2022-08-28T14:24:17.126Z,35.64
2022-08-28T14:26:48.379Z,34.62
2022-08-28T14:29:18.608Z,35.21
2022-08-28T14:32:04.119Z,35.78
2022-08-28T14:34:41.596Z,35.97
2022-08-28T14:37:10.452Z,36.64
2022-08-28T14:39:40.174Z,36.04
2022-08-28T14:42:23.176Z,36.82
2022-08-28T14:44:51.696Z,37.03
2022-08-28T14:47:21.892Z,37.25
2022-08-28T14:49:50.447Z,36.79
2022-08-28T14:52:20.118Z,37.26
2022-08-28T14:54:48.686Z,37.17
2022-08-28T14:57:17.545Z,37.41
2022-08-28T14:59:46.248Z,38.03
2022-08-28T15:02:14.864Z,38.04
2022-08-28T15:04:44.897Z,38.39
2022-08-28T15:07:13.760Z,37.87
2022-08-28T15:09:45.412Z,38.26
2022-08-28T15:12:13.966Z,38.62
2022-08-28T15:14:54.634Z,37.90
2022-08-28T15:17:33.741Z,38.51
2022-08-28T15:20:05.965Z,37.99
2022-08-28T15:22:34.563Z,39.29
2022-08-28T15:25:03.249Z,39.57
2022-08-28T15:27:31.828Z,40.26
2022-08-28T15:30:00.312Z,40.15
2022-08-28T15:32:28.809Z,39.61
2022-08-28T15:34:58.459Z,40.17
2022-08-28T15:37:29.402Z,40.48
2022-08-28T15:40:17.624Z,40.80
2022-08-28T15:42:46.169Z,40.63
2022-08-28T15:45:14.760Z,40.55
2022-08-28T15:47:43.361Z,40.93
2022-08-28T15:50:11.961Z,41.59
2022-08-28T15:52:48.398Z,40.85
2022-08-28T15:55:17.635Z,40.86
2022-08-28T15:57:47.111Z,40.60
2022-08-28T16:00:17.261Z,41.38
2022-08-28T16:02:46.002Z,42.09
2022-08-28T16:05:15.829Z,41.71
2022-08-28T16:07:46.535Z,41.67
2022-08-28T16:10:15.093Z,42.04
2022-08-28T16:12:43.598Z,41.76
2022-08-28T16:15:20.733Z,41.97
2022-08-28T16:17:49.879Z,42.53
2022-08-28T16:20:18.567Z,42.22
2022-08-28T16:22:48.470Z,42.94
2022-08-28T16:25:17.211Z,42.26
2022-08-28T16:27:45.810Z,42.47
2022-08-28T16:30:15.967Z,42.53
2022-08-28T16:32:46.854Z,42.13
2022-08-28T16:35:16.739Z,42.64
2022-08-28T16:37:45.839Z,42.62
2022-08-28T16:40:19.431Z,42.67
2022-08-28T16:42:51.719Z,42.84
2022-08-28T16:45:21.096Z,42.30
2022-08-28T16:47:50.108Z,43.02
2022-08-28T16:50:19.517Z,43.62
2022-08-28T16:52:48.426Z,43.53
2022-08-28T16:55:25.559Z,43.60
2022-08-28T16:57:57.808Z,44.00
2022-08-28T17:00:27.200Z,44.00
2022-08-28T17:02:56.048Z,43.80
2022-08-28T17:05:25.765Z,44.47
2022-08-28T17:07:54.818Z,44.03
2022-08-28T17:10:26.166Z,44.39
2022-08-28T17:12:54.731Z,44.68
2022-08-28T17:15:23.296Z,44.52
2022-08-28T17:17:52.356Z,44.66
2022-08-28T17:20:37.474Z,44.81
2022-08-28T17:23:06.884Z,45.34
2022-08-28T17:25:37.328Z,45.58
2022-08-28T17:28:05.903Z,46.85
2022-08-28T17:30:34.679Z,46.01
2022-08-28T17:33:03.431Z,46.02
2022-08-28T17:35:32.237Z,46.43
2022-08-28T17:38:10.923Z,46.33
2022-08-28T17:40:43.239Z,46.79
2022-08-28T17:43:12.561Z,46.87
2022-08-28T17:45:41.170Z,47.34
2022-08-28T17:48:09.782Z,46.92
2022-08-28T17:50:38.402Z,47.20
2022-08-28T17:53:06.980Z,47.67
2022-08-28T17:55:36.292Z,47.66
2022-08-28T17:58:06.391Z,47.71
2022-08-28T18:00:35.002Z,48.37
2022-08-28T18:03:03.817Z,48.52
2022-08-28T18:05:32.650Z,49.00
2022-08-28T18:08:01.225Z,48.95
2022-08-28T18:10:33.437Z,49.20
2022-08-28T18:13:02.452Z,49.35
2022-08-28T18:15:33.002Z,49.61
2022-08-28T18:18:08.481Z,49.76
2022-08-28T18:20:37.266Z,50.13
2022-08-28T18:23:05.955Z,50.60
2022-08-28T18:25:51.477Z,50.46
2022-08-28T18:28:22.447Z,51.24
2022-08-28T18:30:59.579Z,50.90
2022-08-28T18:33:29.241Z,50.92
2022-08-28T18:35:58.043Z,51.76
2022-08-28T18:38:28.277Z,51.75
2022-08-28T18:40:57.008Z,52.51
2022-08-28T18:43:25.774Z,52.07
2022-08-28T18:45:55.650Z,52.41
2022-08-28T18:48:24.598Z,52.62
2022-08-28T18:50:53.449Z,53.29
2022-08-28T18:53:24.737Z,53.49
2022-08-28T18:55:55.040Z,53.26
2022-08-28T18:58:27.542Z,55.61
2022-08-28T19:00:57.598Z,54.61
2022-08-28T19:03:26.277Z,53.90
2022-08-28T19:05:56.117Z,54.92
2022-08-28T19:08:25.297Z,54.44
2022-08-28T19:10:54.646Z,55.40
2022-08-28T19:13:23.636Z,56.10
2022-08-28T19:15:53.497Z,57.06
2022-08-28T19:18:23.842Z,57.04
2022-08-28T19:20:52.673Z,55.89
2022-08-28T19:23:21.204Z,56.24
2022-08-28T19:25:50.123Z,56.03
2022-08-28T19:28:18.881Z,57.01
2022-08-28T19:30:48.353Z,57.13
2022-08-28T19:33:17.580Z,56.20
2022-08-28T19:35:50.202Z,56.93
2022-08-28T19:38:18.958Z,56.65
2022-08-28T19:40:48.207Z,57.83
2022-08-28T19:43:17.303Z,57.28
2022-08-28T19:45:51.937Z,55.80
2022-08-28T19:48:24.715Z,55.47
2022-08-28T19:51:04.070Z,56.09
2022-08-28T19:53:36.163Z,56.35
2022-08-28T19:56:06.139Z,56.44
2022-08-28T19:58:35.068Z,56.72
2022-08-28T20:01:05.505Z,57.06
2022-08-28T20:03:36.347Z,57.19
2022-08-28T20:06:06.838Z,57.17
2022-08-28T20:08:38.385Z,57.29
2022-08-28T20:11:11.417Z,57.97
2022-08-28T20:13:41.763Z,58.15
2022-08-28T20:16:15.813Z,58.04
2022-08-28T20:18:45.734Z,58.05
2022-08-28T20:21:18.682Z,58.21
2022-08-28T20:23:55.201Z,58.93
2022-08-28T20:26:28.351Z,59.36
2022-08-28T20:28:57.610Z,60.07
2022-08-28T20:31:29.206Z,60.17
2022-08-28T20:33:57.890Z,60.42
2022-08-28T20:36:28.083Z,60.84
2022-08-28T20:38:56.911Z,60.67
2022-08-28T20:41:25.872Z,61.11
2022-08-28T20:43:54.500Z,61.36
2022-08-28T20:46:23.193Z,61.96
2022-08-28T20:48:51.844Z,62.00
2022-08-28T20:51:40.488Z,62.21
2022-08-28T20:54:10.425Z,61.96
2022-08-28T20:56:39.535Z,62.25
2022-08-28T20:59:09.110Z,62.78
2022-08-28T21:01:37.758Z,63.12
2022-08-28T21:04:06.968Z,65.55
2022-08-28T21:06:35.546Z,65.18
2022-08-28T21:09:04.192Z,65.33
2022-08-28T21:11:34.044Z,65.34
2022-08-28T21:14:02.543Z,65.63
2022-08-28T21:16:31.180Z,65.10
2022-08-28T21:19:15.185Z,65.14
2022-08-28T21:21:45.243Z,65.36
2022-08-28T21:24:16.030Z,65.58
2022-08-28T21:26:51.524Z,65.92
2022-08-28T21:29:21.040Z,65.15
2022-08-28T21:31:52.225Z,64.96
2022-08-28T21:34:21.875Z,65.47
2022-08-28T21:36:51.565Z,66.21
2022-08-28T21:39:21.359Z,67.57
2022-08-28T21:41:51.478Z,66.98
2022-08-28T21:44:19.984Z,66.83
2022-08-28T21:46:48.483Z,66.42
2022-08-28T21:49:16.990Z,67.15
2022-08-28T21:51:45.648Z,67.22
2022-08-28T21:54:14.137Z,67.79
2022-08-28T21:56:43.180Z,68.33
2022-08-28T21:59:13.424Z,68.41
2022-08-28T22:01:42.248Z,68.92
2022-08-28T22:04:11.393Z,69.23
2022-08-28T22:06:40.722Z,69.24
2022-08-28T22:09:10.148Z,69.36
2022-08-28T22:11:38.732Z,69.69
2022-08-28T22:14:07.265Z,69.30
2022-08-28T22:16:37.182Z,69.10
2022-08-28T22:19:06.355Z,69.60
2022-08-28T22:21:52.465Z,69.68
2022-08-28T22:24:21.001Z,70.01
2022-08-28T22:26:50.498Z,68.67
2022-08-28T22:29:25.917Z,69.14
2022-08-28T22:31:55.872Z,69.92
2022-08-28T22:34:24.709Z,69.85
2022-08-28T22:36:53.262Z,71.60
2022-08-28T22:39:21.789Z,70.28
2022-08-28T22:41:50.980Z,70.55
2022-08-28T22:44:19.590Z,70.28
2022-08-28T22:46:48.105Z,70.25
2022-08-28T22:49:17.971Z,71.42
2022-08-28T22:51:46.513Z,71.29
2022-08-28T22:54:15.015Z,71.37
2022-08-28T22:56:43.780Z,71.77
2022-08-28T22:59:12.313Z,70.87
2022-08-28T23:01:42.332Z,72.52
2022-08-28T23:04:11.503Z,71.54
2022-08-28T23:06:41.825Z,72.87
2022-08-28T23:09:10.741Z,72.94
2022-08-28T23:11:39.364Z,71.91
2022-08-28T23:14:07.891Z,73.28
2022-08-28T23:16:36.451Z,73.91
2022-08-28T23:19:09.057Z,74.44
2022-08-28T23:21:40.194Z,73.68
2022-08-28T23:24:13.626Z,74.12
2022-08-28T23:26:42.434Z,74.37
2022-08-28T23:29:11.679Z,73.78
2022-08-28T23:31:40.770Z,74.11
2022-08-28T23:34:09.524Z,74.47
2022-08-28T23:36:39.642Z,74.58
2022-08-28T23:39:13.443Z,74.10
2022-08-28T23:41:42.135Z,74.27
2022-08-28T23:44:10.990Z,74.55
2022-08-28T23:46:41.076Z,74.95
2022-08-28T23:49:10.692Z,75.15
2022-08-28T23:51:39.309Z,76.31
2022-08-28T23:54:09.460Z,76.78
2022-08-28T23:56:39.408Z,76.71
2022-08-28T23:59:08.291Z,77.46
